Harrisburg, Nebraska
Current Conditions -  °F | °C
As of 12:53 AM on Wednesday 26 Nov 2014 (Local Time) from KBFF Reporting Station
Overcast Overcast  
Wind Chill: 21°   Ceiling: 9500
Heat Index: 31°   Visibility: 10mi
Dew Point: 25°   Wind: 14mph
Humidity: 79%   Direction: 300°WNW
Pressure: 30.09"   Gusts: 23mph
Location:  41.56°N, 103.74°W
Report Text: KBFF 260753Z AUTO 30012G20KT 10SM OVC095 M01/M04 A3009 RMK AO2 SLP198 T10061039 $
Loading
Personal Weather Stations






























Interactive Weather Map New forecast layout! Learn more

10-Day Weather Forecast

Advertisements
Track Severe Weather on mobile